This is the latest recevied weather packets stored in our database for station/object OK2ILA-1. If no packets are shown the sender has not sent any weather packets the latest 10 day(s).
| Time | Temp. | Humidity | Pressure | Rain* | Wind** | Luminosity | Snow |
|---|---|---|---|---|---|---|---|
| 1788599565 | 21.11° C | 100% | 1019.5 hPa | 0 mm | - | - | - |
| 1788598844 | 20.56° C | 100% | 1019.7 hPa | 0 mm | - | - | - |
| 1788598123 | 20° C | 100% | 1019.9 hPa | 0 mm | - | - | - |
| 1788597403 | 18.89° C | 100% | 1019.9 hPa | 0 mm | - | - | - |
| 1788596682 | 18.33° C | 100% | 1019.9 hPa | 0 mm | - | - | - |
| 1788595961 | 17.78° C | 100% | 1019.5 hPa | 0 mm | - | - | - |
| 1788595241 | 17.78° C | 100% | 1019.2 hPa | 0 mm | - | - | - |
| 1788594520 | 17.22° C | 100% | 1019.4 hPa | 0 mm | - | - | - |
| 1788593799 | 17.22° C | 100% | 1019.4 hPa | 0.25 mm | - | - | - |
| 1788593078 | 16.67° C | 100% | 1019.4 hPa | 0.25 mm | - | - | - |
| 1788592358 | 16.67° C | 100% | 1019.3 hPa | 0.25 mm | - | - | - |
| 1788591637 | 16.67° C | 100% | 1019.2 hPa | 0.25 mm | - | - | - |
| 1788590916 | 16.67° C | 100% | 1019.1 hPa | 0.25 mm | - | - | - |
| 1788590196 | 16.67° C | 100% | 1019 hPa | 0 mm | - | - | - |
| 1788589475 | 16.67° C | 100% | 1019 hPa | 0 mm | - | - | - |
| 1788588754 | 16.67° C | 100% | 1018.6 hPa | 0 mm | - | - | - |
| 1788588034 | 16.67° C | 100% | 1018.3 hPa | 0 mm | - | - | - |
| 1788586592 | 17.22° C | 100% | 1017.9 hPa | 0 mm | - | - | - |
| 1788585872 | 17.22° C | 100% | 1018.3 hPa | 0 mm | - | - | - |
| 1788564972 | 19.44° C | 100% | 1015 hPa | 0 mm | - | - | - |
| 1788562089 | 20° C | 100% | 1014.6 hPa | 0 mm | - | - | - |
| 1788561368 | 20.56° C | 100% | 1014.5 hPa | 0 mm | - | - | - |
| 1788560648 | 20.56° C | 100% | 1014.2 hPa | 0 mm | - | - | - |
| 1788557765 | 24.44° C | 100% | 1012.7 hPa | 0 mm | - | - | - |
| 1788554161 | 24.44° C | 100% | 1011.8 hPa | 0 mm | - | - | - |
* Rain latest hour (hover to see other rain measurements)
** Current wind speed in m/s (hover to see current wind gust speed)